Time;durP1;ratioP1;P1;durP2;ratioP2;P2;SDS_P1;SDS_P2;PMS_P1;PMS_P2;Temp;Humidity;BMP_temperature;BMP_pressure;BME280_temperature;BME280_humidity;BME280_pressure;Samples;Min_cycle;Max_cycle;Signal;HPM_P1;HPM_P2
2021/01/17 00:01:52;;;;;;;11.35;6.35;;;;;;;-0.71;60.67;99983.38;5033268;28;20041;-75
2021/01/17 00:04:38;;;;;;;11.32;6.20;;;;;;;-0.94;60.48;99986.31;5034159;28;20042;-75
2021/01/17 00:07:10;;;;;;;10.50;5.60;;;;;;;-1.02;59.65;99972.00;5034102;28;20065;-74
2021/01/17 00:09:35;;;;;;;12.18;6.90;;;;;;;-0.90;59.84;99984.72;5028635;28;20052;-75
2021/01/17 00:12:03;;;;;;;11.40;5.97;;;;;;;-0.72;61.12;99989.16;5033818;28;20038;-74
2021/01/17 00:14:32;;;;;;;11.35;5.88;;;;;;;-0.61;60.81;99996.00;5034377;28;20025;-75
2021/01/17 00:17:08;;;;;;;11.55;6.15;;;;;;;-0.76;59.99;99993.28;5042350;28;20059;-74
2021/01/17 00:19:34;;;;;;;11.77;6.13;;;;;;;-1.15;60.38;99970.13;5037901;28;20384;-74
2021/01/17 00:22:00;;;;;;;10.85;6.40;;;;;;;-0.76;60.17;99969.97;5040568;28;20028;-75
2021/01/17 00:24:26;;;;;;;10.85;6.32;;;;;;;-0.70;59.28;100008.34;5036829;28;20029;-75
2021/01/17 00:26:53;;;;;;;11.35;6.07;;;;;;;-1.02;59.80;99994.47;5035602;28;20025;-74
2021/01/17 00:29:20;;;;;;;13.70;7.03;;;;;;;-1.00;60.98;99997.81;5033225;28;20029;-76
2021/01/17 00:31:51;;;;;;;12.63;6.78;;;;;;;-0.84;59.79;100014.75;5033399;28;20453;-74
2021/01/17 00:34:31;;;;;;;11.48;6.95;;;;;;;-0.56;59.30;100024.41;5031779;28;20033;-74
2021/01/17 00:37:31;;;;;;;11.20;6.40;;;;;;;-0.90;60.59;100029.59;5032538;28;20042;-75
2021/01/17 00:39:57;;;;;;;11.70;6.65;;;;;;;-0.83;60.14;100018.91;5033979;28;20026;-75
2021/01/17 00:42:34;;;;;;;12.05;6.70;;;;;;;-1.12;59.93;100000.94;5032644;28;20033;-76
2021/01/17 00:48:23;;;;;;;11.95;6.95;;;;;;;-0.94;57.26;100025.38;5033521;28;20071;-75
2021/01/17 00:50:55;;;;;;;13.50;7.65;;;;;;;-0.98;57.25;100048.56;5032089;28;20029;-75
2021/01/17 00:53:25;;;;;;;14.05;7.30;;;;;;;-1.11;56.54;100046.66;5033525;28;20474;-75
2021/01/17 00:55:54;;;;;;;14.43;7.43;;;;;;;-1.24;56.75;100057.19;5033463;28;20108;-75
2021/01/17 00:58:21;;;;;;;13.93;7.63;;;;;;;-1.09;56.54;100060.81;5032304;28;20033;-75
2021/01/17 01:00:46;;;;;;;12.65;7.60;;;;;;;-1.13;56.10;100070.72;5032023;28;20491;-75
2021/01/17 01:03:16;;;;;;;14.23;7.40;;;;;;;-1.06;55.81;100050.06;5032093;28;20036;-76
2021/01/17 01:05:57;;;;;;;16.05;7.85;;;;;;;-1.31;56.18;100067.84;5031848;28;20075;-73
2021/01/17 01:08:34;;;;;;;11.02;6.82;;;;;;;-1.31;55.92;100051.25;5031798;28;20487;-72
2021/01/17 01:11:21;;;;;;;13.82;7.50;;;;;;;-1.00;56.82;100067.66;5031522;28;20045;-73
2021/01/17 01:13:48;;;;;;;13.60;7.53;;;;;;;-1.22;55.35;100058.06;5033818;28;20037;-73
2021/01/17 01:16:17;;;;;;;14.85;8.02;;;;;;;-1.16;56.31;100074.00;5033350;28;20538;-73
2021/01/17 01:18:52;;;;;;;14.07;7.25;;;;;;;-1.16;56.38;100058.19;5032877;28;20021;-73
2021/01/17 01:21:33;;;;;;;12.80;7.28;;;;;;;-1.08;55.41;100067.50;5031453;28;20021;-73
2021/01/17 01:24:01;;;;;;;15.20;7.88;;;;;;;-1.14;56.74;100069.88;5032622;28;20029;-73
2021/01/17 01:26:43;;;;;;;14.80;7.65;;;;;;;-1.33;56.25;100080.31;5031205;28;20056;-73
2021/01/17 01:29:23;;;;;;;14.35;7.40;;;;;;;-1.07;56.52;100058.38;5031581;28;20038;-73
2021/01/17 01:31:57;;;;;;;13.10;7.35;;;;;;;-1.40;56.54;100067.66;5031404;28;20037;-73
2021/01/17 01:34:43;;;;;;;13.05;6.80;;;;;;;-1.36;55.20;100080.22;5032350;28;20055;-74
2021/01/17 01:37:10;;;;;;;15.27;7.90;;;;;;;-1.39;55.82;100061.88;5031089;28;20128;-73
2021/01/17 01:39:39;;;;;;;14.10;7.43;;;;;;;-1.29;57.17;100072.06;5032371;28;20055;-74
2021/01/17 01:42:06;;;;;;;14.80;7.22;;;;;;;-1.26;56.65;100056.31;5030953;28;20400;-73
2021/01/17 01:44:37;;;;;;;16.02;7.88;;;;;;;-1.33;56.08;100062.00;5031115;28;20025;-74
2021/01/17 01:47:04;;;;;;;;;;;;;;;-1.24;55.44;100072.16;5031347;28;20025;-72
2021/01/17 01:49:48;;;;;;;16.67;7.30;;;;;;;-1.19;56.39;100065.63;5031248;28;20401;-73
2021/01/17 01:52:26;;;;;;;13.48;7.40;;;;;;;-0.92;56.11;100059.50;5032118;28;20059;-73
2021/01/17 01:54:55;;;;;;;14.63;7.88;;;;;;;-1.25;55.96;100058.84;5030744;28;20486;-73
2021/01/17 01:57:54;;;;;;;14.45;7.43;;;;;;;-1.17;56.71;100056.53;5032044;28;20498;-74
2021/01/17 02:00:26;;;;;;;15.10;8.27;;;;;;;-1.24;56.10;100057.19;5030857;28;20131;-73
2021/01/17 02:03:07;;;;;;;14.57;8.15;;;;;;;-0.70;56.51;100057.41;5030783;28;20042;-74
2021/01/17 02:05:48;;;;;;;15.60;8.15;;;;;;;-1.21;56.73;100037.31;5031994;28;20560;-74
2021/01/17 02:08:41;;;;;;;16.50;8.57;;;;;;;-0.89;58.05;100058.72;5030672;28;20033;-73
2021/01/17 02:11:48;;;;;;;15.65;7.68;;;;;;;-1.05;56.09;100064.25;5030488;28;20061;-73
2021/01/17 02:14:58;;;;;;;14.07;8.02;;;;;;;-1.29;56.55;100066.25;5031821;28;20091;-74
2021/01/17 02:17:28;;;;;;;14.95;7.85;;;;;;;-1.36;56.81;100067.75;4990349;28;20057;-74
2021/01/17 02:20:17;;;;;;;13.55;7.43;;;;;;;-1.14;57.40;100074.03;5023877;28;20033;-73
2021/01/17 02:23:25;;;;;;;14.02;7.68;;;;;;;-1.15;57.12;100072.34;5030256;28;20030;-74
2021/01/17 02:25:51;;;;;;;12.95;7.47;;;;;;;-0.85;57.34;100064.63;5031626;28;20564;-74
2021/01/17 02:28:18;;;;;;;14.75;7.80;;;;;;;-1.21;56.89;100027.34;5031601;28;20045;-74
2021/01/17 02:31:11;;;;;;;17.42;8.65;;;;;;;-1.18;57.92;100072.28;5030551;28;20040;-74
2021/01/17 02:33:50;;;;;;;16.02;8.70;;;;;;;-1.41;57.72;100074.31;5030567;28;20482;-74
2021/01/17 02:36:33;;;;;;;15.73;8.20;;;;;;;-0.99;57.41;100069.34;5029859;28;20041;-74
2021/01/17 02:39:41;;;;;;;19.42;9.23;;;;;;;-1.22;57.32;100078.84;5033334;28;20040;-74
2021/01/17 02:42:15;;;;;;;14.98;8.00;;;;;;;-1.50;57.13;100068.25;5029910;28;20037;-74
2021/01/17 02:44:55;;;;;;;16.77;8.52;;;;;;;-1.18;56.64;100059.81;5030241;28;20045;-74
2021/01/17 02:47:30;;;;;;;14.88;7.95;;;;;;;-1.24;56.43;100077.97;5031479;28;20036;-74
2021/01/17 02:50:06;;;;;;;13.85;7.78;;;;;;;-1.49;57.00;100045.91;5030259;28;20035;-74
2021/01/17 02:53:01;;;;;;;14.57;7.78;;;;;;;-1.26;57.35;100081.25;5029841;28;20034;-74
2021/01/17 02:55:37;;;;;;;14.30;7.88;;;;;;;-1.48;57.63;100084.09;5029929;28;20090;-74
2021/01/17 02:58:08;;;;;;;14.00;7.97;;;;;;;-1.62;58.65;100073.81;5030822;28;20029;-74
2021/01/17 03:00:49;;;;;;;15.20;7.55;;;;;;;-1.42;58.22;100089.22;5034385;28;20044;-74
2021/01/17 03:03:19;;;;;;;13.63;7.00;;;;;;;-1.69;59.05;100073.66;5035022;28;20421;-74
2021/01/17 03:05:53;;;;;;;12.40;7.07;;;;;;;-1.87;59.28;100057.50;5035048;28;20030;-73
2021/01/17 03:08:20;;;;;;;14.20;7.03;;;;;;;-1.88;58.23;100057.47;5035000;28;20491;-74
2021/01/17 03:10:47;;;;;;;14.20;7.35;;;;;;;-1.52;58.76;100099.78;5034445;28;20042;-73
2021/01/17 03:13:21;;;;;;;15.65;8.27;;;;;;;-1.30;58.47;100094.44;5033726;28;20061;-73
2021/01/17 03:15:56;;;;;;;14.63;7.00;;;;;;;-1.13;59.51;100095.66;5033805;28;20033;-73
2021/01/17 03:18:54;;;;;;;14.70;8.20;;;;;;;-1.05;59.09;100096.66;5033753;28;20465;-73
2021/01/17 03:21:20;;;;;;;13.30;7.70;;;;;;;-1.20;59.35;100101.31;5033279;28;20415;-73
2021/01/17 03:24:17;;;;;;;14.50;8.20;;;;;;;-1.29;59.37;100101.13;5033553;28;20068;-73
2021/01/17 03:26:51;;;;;;;11.95;6.47;;;;;;;-1.83;58.72;100066.75;5033440;28;20136;-74
2021/01/17 03:29:41;;;;;;;13.45;7.13;;;;;;;-1.43;58.42;100095.88;5033817;28;20037;-74
2021/01/17 03:32:09;;;;;;;11.90;6.93;;;;;;;-1.75;57.05;100086.84;5034876;28;20037;-74
2021/01/17 03:35:13;;;;;;;13.30;7.07;;;;;;;-1.42;56.59;100100.03;5033329;28;20065;-74
2021/01/17 03:37:39;;;;;;;13.65;6.85;;;;;;;-1.73;56.96;100100.16;5033359;28;20034;-74
2021/01/17 03:40:11;;;;;;;15.20;6.65;;;;;;;-1.59;56.30;100100.47;5033306;28;20029;-74
2021/01/17 03:42:43;;;;;;;12.45;6.55;;;;;;;-1.69;57.03;100101.06;5033275;28;20120;-74
2021/01/17 03:45:27;;;;;;;10.93;6.07;;;;;;;-1.79;56.04;100083.44;5032931;28;20083;-75
2021/01/17 03:47:59;;;;;;;13.48;6.80;;;;;;;-2.03;55.85;100072.06;5032267;28;20128;-74
2021/01/17 03:50:25;;;;;;;11.95;6.75;;;;;;;-1.84;56.48;100094.06;5033061;28;20034;-74
2021/01/17 03:53:05;;;;;;;13.68;7.40;;;;;;;-1.59;55.99;100075.56;5033468;28;20084;-74
2021/01/17 03:55:34;;;;;;;13.85;6.50;;;;;;;-1.70;55.56;100102.72;5032230;28;20022;-74
2021/01/17 03:58:45;;;;;;;14.57;7.05;;;;;;;-1.15;55.64;100099.78;5032753;28;20063;-74
2021/01/17 04:01:12;;;;;;;12.48;6.93;;;;;;;-1.59;55.57;100102.97;5032911;28;20033;-74
2021/01/17 04:03:46;;;;;;;13.65;7.07;;;;;;;-1.86;54.67;100101.53;5037028;28;20026;-74
2021/01/17 04:06:47;;;;;;;11.52;6.57;;;;;;;-1.58;55.03;100099.66;5032898;28;20036;-74
2021/01/17 04:09:27;;;;;;;13.95;6.90;;;;;;;-1.97;55.31;100062.25;5034052;28;20037;-74
2021/01/17 04:11:55;;;;;;;12.50;6.53;;;;;;;-1.45;55.97;100096.63;5013252;28;20122;-74
2021/01/17 04:14:29;;;;;;;13.35;7.38;;;;;;;-1.52;54.93;100088.16;5014617;28;20037;-74
2021/01/17 04:16:58;;;;;;;14.00;6.80;;;;;;;-1.88;55.05;100083.22;5013057;28;20422;-74
2021/01/17 04:19:31;;;;;;;12.45;6.78;;;;;;;-1.51;54.88;100106.47;5012962;28;20395;-74
2021/01/17 04:22:11;;;;;;;14.32;7.30;;;;;;;-0.88;65.84;100095.31;5012686;28;20049;-73
2021/01/17 04:24:39;;;;;;;15.30;6.70;;;;;;;-1.40;55.76;100110.03;5013076;28;20545;-73
2021/01/17 04:27:07;;;;;;;12.30;7.53;;;;;;;-1.16;55.15;100121.38;5012940;28;20057;-73
2021/01/17 04:29:48;;;;;;;14.30;7.07;;;;;;;-1.19;54.43;100113.00;5012419;28;20100;-73
2021/01/17 04:32:55;;;;;;;12.93;6.47;;;;;;;-1.25;55.38;100130.31;5012616;28;20030;-75
2021/01/17 04:35:46;;;;;;;11.35;6.40;;;;;;;-1.20;55.37;100121.25;5012789;28;20088;-74
2021/01/17 04:38:22;;;;;;;12.93;7.00;;;;;;;-1.44;54.18;100103.28;5013600;28;20108;-74
2021/01/17 04:40:53;;;;;;;15.20;7.38;;;;;;;-1.23;53.76;100121.22;5012514;28;20026;-74
2021/01/17 04:43:39;;;;;;;14.73;7.88;;;;;;;-1.44;54.20;100120.72;5012416;28;20038;-75
2021/01/17 04:46:56;;;;;;;23.35;11.93;;;;;;;-1.58;55.86;100140.38;5012449;28;20124;-75
2021/01/17 04:49:42;;;;;;;14.05;6.93;;;;;;;-1.74;54.17;100142.47;5012460;28;20033;-74
2021/01/17 04:52:20;;;;;;;18.85;8.98;;;;;;;-1.66;54.01;100126.88;5013258;28;20087;-75
2021/01/17 04:54:57;;;;;;;19.67;9.25;;;;;;;-1.34;54.34;100147.53;5012441;28;20026;-74
2021/01/17 05:00:58;;;;;;;20.65;9.52;;;;;;;-1.68;54.07;100145.13;5013390;28;20042;-73
2021/01/17 05:04:06;;;;;;;19.25;9.60;;;;;;;-1.79;54.62;100139.88;5013387;28;20101;-74
2021/01/17 05:06:59;;;;;;;19.33;10.07;;;;;;;-1.80;54.26;100153.97;5011895;28;20128;-73
2021/01/17 05:13:24;;;;;;;21.95;10.27;;;;;;;-1.99;53.67;100149.38;5032908;28;20096;-74
2021/01/17 05:16:04;;;;;;;14.90;7.93;;;;;;;-1.89;53.49;100128.84;5031906;28;20091;-74
2021/01/17 05:18:36;;;;;;;14.35;7.53;;;;;;;-2.00;53.64;100135.22;5031965;28;20136;-74
2021/01/17 05:21:08;;;;;;;14.07;8.48;;;;;;;-1.72;54.50;100134.22;5030898;28;20088;-75
2021/01/17 05:23:43;;;;;;;15.82;7.90;;;;;;;-1.96;53.49;100139.47;5031464;28;20032;-75
2021/01/17 05:26:20;;;;;;;17.63;8.57;;;;;;;-1.86;54.69;100150.47;5032810;28;20040;-74
2021/01/17 05:28:47;;;;;;;14.43;7.22;;;;;;;-1.86;52.95;100138.88;5036497;28;20039;-75
2021/01/17 05:31:23;;;;;;;14.48;7.70;;;;;;;-1.85;53.33;100158.00;5033405;28;20436;-74
2021/01/17 05:33:57;;;;;;;15.35;7.80;;;;;;;-1.85;53.92;100154.66;5032448;28;20029;-74
2021/01/17 05:36:26;;;;;;;13.50;6.88;;;;;;;-1.77;53.08;100156.56;5031411;28;20461;-74
2021/01/17 05:39:01;;;;;;;13.68;7.78;;;;;;;-1.81;53.07;100159.78;5031011;28;20025;-74
2021/01/17 05:41:43;;;;;;;14.75;7.82;;;;;;;-1.96;54.23;100164.34;5032158;28;20140;-75
2021/01/17 05:44:09;;;;;;;23.17;10.77;;;;;;;-1.82;53.83;100154.72;5032267;28;20028;-75
2021/01/17 05:46:35;;;;;;;18.83;9.15;;;;;;;-1.90;53.38;100166.16;5031995;28;20025;-74
2021/01/17 05:49:24;;;;;;;22.60;10.30;;;;;;;-2.12;53.78;100139.06;5031940;28;20399;-75
2021/01/17 05:52:12;;;;;;;17.15;8.32;;;;;;;-2.01;53.59;100146.00;5031127;28;20459;-75
2021/01/17 05:54:49;;;;;;;22.95;10.15;;;;;;;-1.78;53.27;100163.97;5031140;28;20025;-74
2021/01/17 05:57:25;;;;;;;17.17;8.10;;;;;;;-1.94;52.36;100170.22;5032193;28;20037;-75
2021/01/17 06:00:00;;;;;;;18.92;9.52;;;;;;;-1.93;54.28;100156.97;5032584;28;20113;-75
2021/01/17 06:02:26;;;;;;;44.65;19.15;;;;;;;-1.85;55.13;100167.97;5030842;28;20041;-75
2021/01/17 06:05:04;;;;;;;23.33;11.48;;;;;;;-1.64;53.42;100166.81;5031026;28;20025;-75
2021/01/17 06:07:48;;;;;;;15.80;8.38;;;;;;;-1.79;54.25;100168.13;5031520;28;20029;-75
2021/01/17 06:10:30;;;;;;;25.23;12.93;;;;;;;-2.02;54.10;100156.75;5030033;28;20029;-75
2021/01/17 06:12:55;;;;;;;;;;;;;;;-1.73;54.30;100171.56;5031111;28;20033;-76
2021/01/17 06:15:32;;;;;;;18.40;9.95;;;;;;;-1.74;53.69;100165.72;5030879;28;20043;-75
2021/01/17 06:18:14;;;;;;;24.50;11.07;;;;;;;-1.53;53.54;100160.41;5030594;28;20021;-74
2021/01/17 06:21:09;;;;;;;19.17;10.30;;;;;;;-1.81;53.37;100167.25;5030703;28;20052;-75
2021/01/17 06:23:37;;;;;;;27.17;12.57;;;;;;;-1.76;52.55;100177.28;5031485;28;20101;-75
2021/01/17 06:26:12;;;;;;;28.35;14.40;;;;;;;-1.73;53.35;100166.56;5031657;28;20022;-74
2021/01/17 06:28:42;;;;;;;32.08;14.93;;;;;;;-1.64;53.33;100179.25;5030404;28;20536;-75
2021/01/17 06:31:11;;;;;;;31.38;16.67;;;;;;;-1.60;52.03;100158.56;5031604;28;20072;-75
2021/01/17 06:34:01;;;;;;;35.30;18.00;;;;;;;-1.56;53.45;100172.78;5029556;28;20033;-74
2021/01/17 06:36:32;;;;;;;19.73;10.85;;;;;;;-1.78;53.59;100188.88;5031498;28;20034;-74
2021/01/17 06:38:58;;;;;;;22.50;12.43;;;;;;;-2.01;53.94;100160.06;5030224;28;20053;-74
2021/01/17 06:41:37;;;;;;;18.45;9.82;;;;;;;-1.72;53.22;100203.16;5031603;28;20072;-74
2021/01/17 06:44:27;;;;;;;22.27;11.25;;;;;;;-1.84;52.98;100201.16;5030195;28;20029;-74
2021/01/17 06:47:21;;;;;;;19.30;10.02;;;;;;;-1.77;54.37;100205.50;5031555;28;20469;-74
2021/01/17 06:49:58;;;;;;;18.63;8.77;;;;;;;-1.86;53.17;100203.63;5030322;28;20033;-75
2021/01/17 06:52:52;;;;;;;19.20;8.50;;;;;;;-1.94;53.84;100197.63;5031656;28;20029;-75
2021/01/17 06:56:03;;;;;;;19.15;8.65;;;;;;;-1.80;53.48;100196.31;5031227;28;20035;-74
2021/01/17 06:58:37;;;;;;;23.70;12.05;;;;;;;-1.61;54.11;100196.75;5031328;28;20033;-75
2021/01/17 07:01:25;;;;;;;24.38;11.65;;;;;;;-1.74;53.92;100184.84;5030324;28;20111;-75
2021/01/17 07:04:14;;;;;;;22.17;11.52;;;;;;;-1.55;52.48;100196.91;5030379;28;20494;-75
2021/01/17 07:07:17;;;;;;;24.10;11.30;;;;;;;-1.43;52.80;100203.03;5032592;28;20033;-76
2021/01/17 07:09:58;;;;;;;20.05;9.25;;;;;;;-1.48;51.74;100197.09;5031298;28;20040;-75
2021/01/17 07:13:08;;;;;;;34.95;18.10;;;;;;;-1.11;52.84;100209.56;5031096;28;20125;-75
2021/01/17 07:15:41;;;;;;;44.03;21.35;;;;;;;-1.38;51.54;100191.50;5030053;28;20663;-75
2021/01/17 07:18:19;;;;;;;29.35;13.77;;;;;;;-1.06;51.28;100204.69;5031124;28;20116;-75
2021/01/17 07:21:23;;;;;;;18.25;10.18;;;;;;;-0.53;49.45;100206.66;5031136;28;20052;-74
2021/01/17 07:24:04;;;;;;;27.92;14.02;;;;;;;-1.45;52.35;100218.75;5031064;28;20033;-74
2021/01/17 07:27:21;;;;;;;28.70;15.68;;;;;;;-1.25;52.46;100227.53;5030898;28;20037;-74
2021/01/17 07:29:58;;;;;;;17.75;9.93;;;;;;;-1.31;51.26;100224.91;5033783;28;20413;-75
2021/01/17 07:32:38;;;;;;;19.23;10.43;;;;;;;-1.36;49.36;100197.38;5048966;28;20399;-75
2021/01/17 07:35:14;;;;;;;20.17;10.27;;;;;;;-0.83;49.14;100191.03;5031640;28;20041;-75
2021/01/17 07:37:55;;;;;;;16.48;8.57;;;;;;;-0.88;48.77;100227.53;5030504;28;20026;-75
2021/01/17 07:43:11;;;;;;;17.80;8.93;;;;;;;-0.95;48.53;100231.53;5031391;28;20454;-78
2021/01/17 07:45:48;;;;;;;18.05;9.98;;;;;;;-0.89;48.83;100213.38;5034007;28;20025;-78
2021/01/17 07:48:17;;;;;;;21.42;10.45;;;;;;;-0.39;47.56;100227.72;5033732;28;20419;-77
2021/01/17 07:50:57;;;;;;;18.95;10.63;;;;;;;-0.75;50.14;100226.16;5034884;28;20036;-78
2021/01/17 07:53:41;;;;;;;19.35;8.75;;;;;;;-0.82;48.18;100229.31;4679051;28;9999959;-79
2021/01/17 07:56:29;;;;;;;19.20;9.95;;;;;;;-1.09;48.87;100227.91;5027790;28;20047;-80
2021/01/17 07:59:03;;;;;;;23.90;12.98;;;;;;;-1.01;48.90;100220.63;5045487;28;20071;-77
2021/01/17 08:01:34;;;;;;;19.38;9.63;;;;;;;-1.20;48.50;100231.81;5047644;28;20065;-81
2021/01/17 08:04:03;;;;;;;20.95;10.70;;;;;;;-1.03;48.09;100222.22;5039930;28;20033;-78
2021/01/17 08:06:35;;;;;;;39.33;17.27;;;;;;;-1.06;48.41;100225.50;5027768;28;20088;-78
2021/01/17 08:09:05;;;;;;;31.75;14.23;;;;;;;-1.10;48.01;100217.91;5027615;28;20030;-81
2021/01/17 08:11:49;;;;;;;29.25;14.68;;;;;;;-0.92;48.40;100224.16;5029199;28;20045;-77
2021/01/17 08:14:32;;;;;;;20.60;10.60;;;;;;;-0.90;48.18;100230.00;5049669;28;20068;-79
2021/01/17 08:17:05;;;;;;;19.77;10.93;;;;;;;-1.15;49.54;100232.75;5047471;28;20064;-76
2021/01/17 08:19:55;;;;;;;19.20;9.63;;;;;;;-1.19;48.88;100205.25;5049186;28;20021;-78
2021/01/17 08:22:22;;;;;;;20.80;10.02;;;;;;;-0.67;47.76;100223.00;5049376;28;20099;-78
2021/01/17 08:25:01;;;;;;;18.85;8.82;;;;;;;-0.41;48.29;100218.53;5062047;28;20029;-80
2021/01/17 08:27:45;;;;;;;22.45;11.15;;;;;;;-0.74;46.48;100213.72;5047685;28;20126;-80
2021/01/17 08:30:24;;;;;;;18.48;9.90;;;;;;;-0.34;46.08;100220.34;5047708;28;20045;-82
2021/01/17 08:32:54;;;;;;;19.08;9.65;;;;;;;-0.87;47.15;100224.22;5049268;28;20059;-78
2021/01/17 08:35:20;;;;;;;15.40;8.38;;;;;;;-0.71;46.80;100227.91;5049260;28;20032;-76
2021/01/17 08:37:56;;;;;;;17.75;10.02;;;;;;;-0.19;46.43;100221.47;5049056;28;20025;-78
2021/01/17 08:40:28;;;;;;;16.60;8.90;;;;;;;-0.50;47.63;100234.19;5048260;28;20510;-79
2021/01/17 08:42:58;;;;;;;14.13;7.78;;;;;;;-0.70;47.73;100229.59;5047999;28;20047;-77
2021/01/17 08:45:23;;;;;;;25.88;12.43;;;;;;;-0.57;48.37;100232.34;5046273;28;20036;-77
2021/01/17 08:47:57;;;;;;;26.95;12.13;;;;;;;-0.34;47.91;100220.34;5047648;28;20037;-79
2021/01/17 08:50:37;;;;;;;32.58;15.43;;;;;;;-0.47;47.33;100219.25;5047095;28;20101;-79
2021/01/17 08:53:10;;;;;;;29.30;14.65;;;;;;;-0.01;46.74;100226.81;5040046;28;20053;-81
2021/01/17 08:55:49;;;;;;;30.65;14.80;;;;;;;-0.17;47.82;100219.84;5026793;28;20414;-77
2021/01/17 08:58:36;;;;;;;25.58;12.10;;;;;;;-0.29;47.26;100208.78;5027280;28;20107;-75
2021/01/17 09:01:04;;;;;;;19.73;12.68;;;;;;;-0.51;47.62;100211.66;5026340;28;20132;-77
2021/01/17 09:03:36;;;;;;;21.88;15.45;;;;;;;0.06;50.01;100229.41;5026701;28;20040;-77
2021/01/17 09:06:23;;;;;;;16.13;9.20;;;;;;;-0.44;47.34;100221.81;5027219;28;20496;-78
2021/01/17 09:08:49;;;;;;;49.30;21.08;;;;;;;-0.03;48.19;100222.59;5026801;28;20641;-78
2021/01/17 09:11:32;;;;;;;20.45;12.02;;;;;;;-0.18;50.26;100224.81;5028478;28;20141;-79
2021/01/17 09:14:29;;;;;;;35.03;17.27;;;;;;;-0.11;51.66;100224.09;5027771;28;20072;-80
2021/01/17 09:17:06;;;;;;;39.35;22.42;;;;;;;0.09;51.30;100185.34;5027373;28;20123;-79
2021/01/17 09:19:36;;;;;;;83.40;43.17;;;;;;;-0.03;50.65;100208.44;5028627;28;20089;-76
2021/01/17 09:22:06;;;;;;;30.40;17.80;;;;;;;0.41;49.06;100203.34;5027019;28;20021;-78
2021/01/17 09:24:36;;;;;;;18.83;10.57;;;;;;;0.34;49.89;100194.06;5027169;28;20049;-76
2021/01/17 09:27:05;;;;;;;16.48;9.88;;;;;;;0.33;51.60;100207.38;5028761;28;20047;-77
2021/01/17 09:29:37;;;;;;;20.52;10.38;;;;;;;0.54;52.66;100196.06;5027706;28;20049;-78
2021/01/17 09:32:14;;;;;;;;;;;;;;;0.70;53.78;100205.50;5045588;28;20763;-78
2021/01/17 09:34:41;;;;;;;20.40;10.48;;;;;;;0.74;50.40;100192.22;5029224;28;19924;-78
2021/01/17 09:37:11;;;;;;;30.05;13.75;;;;;;;0.88;50.83;100180.75;5033026;28;20591;-80
2021/01/17 09:39:42;;;;;;;24.23;12.50;;;;;;;0.84;51.53;100181.53;5036785;28;20064;-79
2021/01/17 09:42:10;;;;;;;18.98;9.50;;;;;;;1.69;55.47;100185.09;5027141;28;20124;-82
2021/01/17 09:44:37;;;;;;;18.50;9.60;;;;;;;1.78;52.47;100162.66;5028545;28;20068;-80
2021/01/17 09:47:13;;;;;;;42.45;20.55;;;;;;;0.52;44.79;100174.34;5027294;28;20461;-80
2021/01/17 09:49:42;;;;;;;18.02;10.02;;;;;;;0.54;44.01;100175.22;5027326;28;20493;-81
2021/01/17 09:52:16;;;;;;;19.40;9.57;;;;;;;0.84;46.10;100183.19;5026456;28;20394;-81
2021/01/17 09:54:43;;;;;;;24.17;12.43;;;;;;;1.55;54.82;100132.34;5046512;28;20418;-80
2021/01/17 09:57:20;;;;;;;25.33;13.23;;;;;;;1.67;54.22;100172.53;5046048;28;20043;-83
2021/01/17 09:59:49;;;;;;;48.05;20.05;;;;;;;1.41;50.27;100155.53;5047135;28;20080;-82
2021/01/17 10:02:20;;;;;;;32.55;16.08;;;;;;;0.05;49.93;100146.13;5046998;28;20025;-79
2021/01/17 10:04:47;;;;;;;;;;;;;;;1.05;49.61;100175.13;5048074;28;20548;-77
2021/01/17 10:07:21;;;;;;;39.40;17.77;;;;;;;0.74;51.39;100132.19;5045970;28;19925;-77
2021/01/17 10:09:48;;;;;;;55.55;24.05;;;;;;;1.61;51.70;100159.94;5046305;28;20021;-79
2021/01/17 10:12:22;;;;;;;62.50;28.00;;;;;;;1.50;49.98;100145.63;5048229;28;20053;-80
2021/01/17 10:14:48;;;;;;;25.50;14.93;;;;;;;1.33;53.96;100179.66;5047077;28;20032;-77
2021/01/17 10:17:14;;;;;;;35.65;20.10;;;;;;;1.08;49.64;100152.63;5046620;28;20656;-78
2021/01/17 10:19:40;;;;;;;36.05;18.23;;;;;;;1.05;46.73;100160.94;5048138;28;20108;-79
2021/01/17 10:22:11;;;;;;;18.42;10.75;;;;;;;0.85;46.52;100140.66;5047071;28;20579;-77
2021/01/17 10:24:40;;;;;;;36.28;16.88;;;;;;;1.12;45.95;100146.84;5046399;28;20087;-81
2021/01/17 10:27:08;;;;;;;19.25;10.77;;;;;;;0.60;46.53;100122.81;5046635;28;20037;-77
2021/01/17 10:29:40;;;;;;;18.90;9.57;;;;;;;0.28;47.46;100162.31;5046945;28;20033;-81
2021/01/17 10:32:14;;;;;;;15.70;7.93;;;;;;;0.11;46.32;100165.38;5045215;28;20033;-81
2021/01/17 10:34:43;;;;;;;33.95;14.18;;;;;;;0.46;45.52;100157.59;5046876;28;20107;-77
2021/01/17 10:37:11;;;;;;;28.52;12.57;;;;;;;0.34;45.81;100164.91;5045713;28;20025;-80
2021/01/17 10:39:39;;;;;;;22.30;10.52;;;;;;;0.85;45.00;100159.84;5045496;28;20521;-81
2021/01/17 10:42:28;;;;;;;20.95;11.40;;;;;;;0.99;46.96;100148.34;5045864;28;20033;-81
2021/01/17 10:45:05;;;;;;;18.40;9.35;;;;;;;0.62;45.35;100161.19;5049471;28;20028;-75
2021/01/17 10:47:57;;;;;;;37.03;16.80;;;;;;;0.58;44.87;100161.94;5060534;28;20108;-78
2021/01/17 10:50:25;;;;;;;30.95;16.30;;;;;;;0.83;44.47;100159.00;5065546;28;20013;-80
2021/01/17 10:53:28;;;;;;;16.67;9.00;;;;;;;0.48;44.57;100163.47;5048376;28;20017;-81
2021/01/17 10:55:58;;;;;;;67.85;27.42;;;;;;;1.08;44.47;100165.16;5029461;28;20042;-79
2021/01/17 10:58:26;;;;;;;30.45;14.98;;;;;;;0.82;44.86;100168.16;5025935;28;20041;-82
2021/01/17 11:00:57;;;;;;;32.25;14.93;;;;;;;0.60;45.56;100171.16;5027284;28;20091;-82
2021/01/17 11:03:38;;;;;;;29.15;13.88;;;;;;;0.84;45.04;100168.16;5025562;28;20482;-81
2021/01/17 11:06:10;;;;;;;27.43;13.07;;;;;;;0.17;45.76;100120.47;5027032;28;20034;-83
2021/01/17 11:08:45;;;;;;;20.40;11.57;;;;;;;0.39;45.49;100168.34;5025875;28;20033;-82
2021/01/17 11:11:13;;;;;;;79.00;31.13;;;;;;;0.78;45.95;100158.94;5027220;28;20049;-81
2021/01/17 11:13:38;;;;;;;38.25;17.98;;;;;;;1.36;45.56;100130.47;5026313;28;20048;-82
2021/01/17 11:16:06;;;;;;;35.65;16.13;;;;;;;0.83;46.13;100164.81;5027330;28;20434;-83
2021/01/17 11:18:32;;;;;;;22.23;12.40;;;;;;;0.97;45.86;100162.50;5045404;28;20163;-81
2021/01/17 11:20:59;;;;;;;18.67;10.18;;;;;;;1.45;45.73;100143.06;5050598;28;20478;-85
2021/01/17 11:23:27;;;;;;;15.60;9.40;;;;;;;1.33;44.73;100152.94;5048580;28;20075;-84
2021/01/17 11:25:58;;;;;;;15.27;8.18;;;;;;;0.68;46.19;100137.09;5048951;28;20043;-85
2021/01/17 11:28:28;;;;;;;14.43;8.10;;;;;;;0.39;46.72;100155.00;5046866;28;20128;-84
2021/01/17 11:30:56;;;;;;;16.40;8.52;;;;;;;0.17;47.88;100135.47;5046366;28;20036;-87
2021/01/17 11:33:28;;;;;;;17.55;10.00;;;;;;;0.21;47.69;100149.72;5048736;28;20037;-84
2021/01/17 11:35:59;;;;;;;18.98;10.07;;;;;;;-0.11;48.29;100135.03;5049372;28;20044;-82
2021/01/17 11:38:50;;;;;;;16.08;9.93;;;;;;;0.15;47.86;100129.63;5049220;28;20048;-85
2021/01/17 11:41:18;;;;;;;22.30;10.93;;;;;;;0.11;49.26;100137.88;5048821;28;20402;-81
2021/01/17 11:43:47;;;;;;;20.40;9.73;;;;;;;-0.05;49.09;100147.63;5049381;28;20044;-83
2021/01/17 11:46:14;;;;;;;19.27;9.75;;;;;;;-0.30;48.32;100115.53;5047834;28;20064;-86
2021/01/17 11:48:41;;;;;;;16.63;9.10;;;;;;;-0.16;48.78;100153.25;5049603;28;20033;-82
2021/01/17 11:51:08;;;;;;;18.58;9.48;;;;;;;-0.31;47.40;100153.81;5048821;28;20017;-79
2021/01/17 11:53:37;;;;;;;24.65;11.93;;;;;;;-0.11;48.10;100150.03;5039177;28;20495;-78
2021/01/17 11:56:05;;;;;;;18.48;9.70;;;;;;;-0.47;48.66;100136.03;5029784;28;20555;-77
2021/01/17 11:58:41;;;;;;;21.50;12.13;;;;;;;0.16;46.87;100141.31;5029190;28;20029;-78
2021/01/17 12:01:10;;;;;;;17.65;9.95;;;;;;;-0.02;47.82;100137.69;5028510;28;20083;-78
2021/01/17 12:03:42;;;;;;;16.70;9.57;;;;;;;0.36;46.25;100152.44;5041059;28;20083;-78
2021/01/17 12:06:18;;;;;;;;;;;;;;;0.18;48.01;100154.66;5044349;28;20025;-79
2021/01/17 12:09:08;;;;;;;24.65;12.23;;;;;;;0.24;48.19;100148.09;5028020;28;20317;-76
2021/01/17 12:11:48;;;;;;;21.05;10.75;;;;;;;-0.15;46.49;100138.28;5028036;28;20053;-78
2021/01/17 12:14:25;;;;;;;18.83;10.68;;;;;;;-0.06;47.22;100152.59;5028175;28;20029;-80